Time;durP1;ratioP1;P1;durP2;ratioP2;P2;SDS_P1;SDS_P2;PMS_P1;PMS_P2;Temp;Humidity;BMP_temperature;BMP_pressure;BME280_temperature;BME280_humidity;BME280_pressure;Samples;Min_cycle;Max_cycle;Signal;HPM_P1;HPM_P2
2021/12/19 00:02:16;;;;;;;20.30;15.07;;;4.50;99.90;;;;;;5044755;28;20181;-88
2021/12/19 00:08:27;;;;;;;17.07;13.57;;;4.60;99.90;;;;;;5050269;28;20184;-88
2021/12/19 00:10:15;;;;;;;19.17;13.40;;;4.60;99.90;;;;;;5051937;28;20265;-88
2021/12/19 00:12:41;;;;;;;17.13;12.63;;;4.60;99.90;;;;;;5054611;28;20278;-88
2021/12/19 00:15:07;;;;;;;16.13;12.40;;;4.50;99.90;;;;;;5038472;28;20180;-89
2021/12/19 00:17:32;;;;;;;17.73;13.77;;;4.40;99.90;;;;;;5056854;28;20212;-89
2021/12/19 00:19:58;;;;;;;15.47;11.40;;;4.40;99.90;;;;;;5050631;28;20275;-89
2021/12/19 00:22:24;;;;;;;15.90;11.23;;;4.50;99.90;;;;;;5042301;28;20196;-88
2021/12/19 00:24:49;;;;;;;17.40;12.40;;;4.40;99.90;;;;;;5073923;28;20196;-89
2021/12/19 00:27:15;;;;;;;15.73;12.60;;;4.50;99.90;;;;;;5067829;28;20231;-89
2021/12/19 00:29:41;;;;;;;18.20;12.40;;;4.50;99.90;;;;;;5071629;28;20180;-88
2021/12/19 00:32:07;;;;;;;15.23;12.27;;;4.50;99.90;;;;;;5074424;28;20214;-88
2021/12/19 00:34:32;;;;;;;16.40;12.73;;;4.60;99.90;;;;;;5038162;28;20208;-88
2021/12/19 00:36:58;;;;;;;15.77;12.53;;;4.70;99.90;;;;;;5056397;28;20223;-87
2021/12/19 00:39:24;;;;;;;18.13;13.13;;;4.70;99.90;;;;;;5053409;28;20196;-87
2021/12/19 00:41:52;;;;;;;15.53;12.40;;;4.70;99.90;;;;;;5055522;28;20246;-87
2021/12/19 00:44:25;;;;;;;17.80;12.87;;;4.70;99.90;;;;;;5051930;28;20199;-87
2021/12/19 00:47:04;;;;;;;17.43;12.27;;;4.70;99.90;;;;;;5050740;28;20302;-88
2021/12/19 00:49:30;;;;;;;16.73;11.60;;;4.70;99.90;;;;;;5049404;28;20196;-88
2021/12/19 00:51:56;;;;;;;16.13;12.30;;;4.70;99.90;;;;;;5057005;28;20639;-88
2021/12/19 00:54:22;;;;;;;16.50;12.30;;;4.70;99.90;;;;;;5049785;28;20323;-87
2021/12/19 00:56:49;;;;;;;15.33;12.10;;;4.70;99.90;;;;;;5036169;28;20241;-88
2021/12/19 00:59:16;;;;;;;17.90;12.80;;;4.80;99.90;;;;;;5018744;28;20670;-87
2021/12/19 01:01:42;;;;;;;17.90;12.33;;;4.70;99.90;;;;;;5047887;28;20299;-88
2021/12/19 01:04:12;;;;;;;14.10;11.50;;;4.70;99.90;;;;;;5048254;28;20216;-88
2021/12/19 01:06:39;;;;;;;15.03;11.80;;;4.70;99.90;;;;;;5018836;28;20307;-88
2021/12/19 01:09:06;;;;;;;15.83;11.90;;;4.70;99.90;;;;;;5057542;28;20265;-88
2021/12/19 01:11:32;;;;;;;15.60;11.83;;;4.70;99.90;;;;;;5022643;28;20189;-88
2021/12/19 01:13:58;;;;;;;14.60;11.30;;;4.70;99.90;;;;;;5039017;28;20227;-88
2021/12/19 01:16:24;;;;;;;15.73;11.63;;;4.80;99.90;;;;;;5053257;28;20497;-88
2021/12/19 01:18:50;;;;;;;14.10;11.33;;;4.80;99.90;;;;;;5068610;28;20232;-87
2021/12/19 01:21:16;;;;;;;14.83;11.80;;;4.90;99.90;;;;;;5066396;28;20259;-88
2021/12/19 01:23:42;;;;;;;14.70;11.03;;;4.90;99.90;;;;;;5032541;28;20231;-88
2021/12/19 01:26:08;;;;;;;15.13;11.13;;;4.80;99.90;;;;;;5024424;28;20220;-88
2021/12/19 01:28:34;;;;;;;13.10;10.30;;;4.80;99.90;;;;;;5067364;28;20173;-88
2021/12/19 01:31:00;;;;;;;16.47;11.93;;;4.80;99.90;;;;;;5049532;28;20241;-87
2021/12/19 01:33:26;;;;;;;13.40;11.03;;;4.80;99.90;;;;;;5054515;28;20217;-88
2021/12/19 01:35:52;;;;;;;12.47;10.83;;;4.90;99.90;;;;;;5061073;28;20204;-87
2021/12/19 01:38:18;;;;;;;15.63;11.33;;;4.90;99.90;;;;;;5059386;28;20193;-88
2021/12/19 01:40:44;;;;;;;14.43;11.60;;;4.90;99.90;;;;;;5045385;28;20215;-88
2021/12/19 01:43:10;;;;;;;15.70;11.63;;;4.90;99.90;;;;;;5045050;28;20184;-87
2021/12/19 01:45:39;;;;;;;13.80;10.83;;;4.80;99.90;;;;;;5057554;28;20214;-88
2021/12/19 01:48:11;;;;;;;13.67;11.23;;;4.80;99.90;;;;;;5058192;28;20197;-88
2021/12/19 01:50:42;;;;;;;15.93;11.73;;;4.80;99.90;;;;;;5055451;28;20193;-89
2021/12/19 01:53:11;;;;;;;16.63;11.57;;;4.80;99.90;;;;;;5045050;28;20254;-89
2021/12/19 01:55:37;;;;;;;14.20;11.47;;;4.80;99.90;;;;;;5042376;28;20290;-89
2021/12/19 01:58:03;;;;;;;16.27;11.67;;;4.70;99.90;;;;;;5049467;28;20212;-87
2021/12/19 02:00:33;;;;;;;14.77;11.67;;;4.80;99.90;;;;;;5051807;28;20276;-88
2021/12/19 02:02:59;;;;;;;15.20;11.73;;;4.80;99.90;;;;;;5058997;28;20189;-88
2021/12/19 02:05:26;;;;;;;15.70;12.17;;;4.80;99.90;;;;;;5057587;28;20199;-88
2021/12/19 02:07:54;;;;;;;16.27;11.70;;;4.90;99.90;;;;;;5035068;28;20216;-89
2021/12/19 02:10:22;;;;;;;17.63;13.17;;;4.90;99.90;;;;;;5049109;28;20200;-88
2021/12/19 02:12:49;;;;;;;16.87;12.40;;;4.90;99.90;;;;;;5060319;28;20670;-87
2021/12/19 02:15:19;;;;;;;16.93;11.53;;;4.80;99.90;;;;;;5041248;28;20557;-89
2021/12/19 02:17:46;;;;;;;14.70;11.43;;;4.80;99.90;;;;;;5053135;28;20200;-87
2021/12/19 02:20:13;;;;;;;15.40;11.03;;;4.90;99.90;;;;;;5056015;28;20786;-87
2021/12/19 02:22:40;;;;;;;16.40;11.37;;;4.90;99.90;;;;;;5052115;28;20209;-87
2021/12/19 02:25:08;;;;;;;16.77;12.67;;;4.80;99.90;;;;;;5065639;28;20856;-88
2021/12/19 02:27:34;;;;;;;17.07;11.97;;;4.90;99.90;;;;;;5058832;28;20302;-89
2021/12/19 02:30:00;;;;;;;18.67;12.70;;;4.80;99.90;;;;;;5052988;28;20187;-88
2021/12/19 02:32:29;;;;;;;18.07;13.43;;;4.90;99.90;;;;;;5055193;28;20207;-88
2021/12/19 02:34:57;;;;;;;19.13;14.00;;;4.90;99.90;;;;;;5049627;28;20198;-88
2021/12/19 02:48:13;;;;;;;16.53;12.77;;;4.80;99.90;;;;;;5075236;28;20299;-89
2021/12/19 02:50:49;;;;;;;17.57;12.20;;;4.80;99.90;;;;;;5074433;28;20177;-88
2021/12/19 02:53:26;;;;;;;16.47;11.80;;;4.80;99.90;;;;;;5055044;28;20383;-88
2021/12/19 02:55:51;;;;;;;20.23;14.77;;;4.80;99.90;;;;;;5041341;28;20279;-88
2021/12/19 02:58:17;;;;;;;15.70;12.53;;;4.70;99.90;;;;;;5055819;28;20223;-88
2021/12/19 03:00:43;;;;;;;15.40;13.17;;;4.70;99.90;;;;;;5037805;28;20223;-88
2021/12/19 03:03:09;;;;;;;15.30;12.27;;;4.70;99.90;;;;;;5060353;28;20192;-88
2021/12/19 03:05:34;;;;;;;15.87;13.03;;;4.80;99.90;;;;;;5035320;28;20226;-88
2021/12/19 03:08:03;;;;;;;16.13;12.03;;;4.90;99.90;;;;;;5050354;28;20220;-88
2021/12/19 03:18:23;;;;;;;14.87;11.47;;;4.70;99.90;;;;;;5048170;28;20204;-88
2021/12/19 03:20:49;;;;;;;15.27;11.73;;;4.60;99.90;;;;;;5022278;28;20201;-88
2021/12/19 03:23:14;;;;;;;13.97;11.20;;;4.60;99.90;;;;;;5055679;28;20192;-88
2021/12/19 03:25:41;;;;;;;15.47;11.83;;;4.50;99.90;;;;;;5049015;28;20212;-88
2021/12/19 03:28:09;;;;;;;12.97;11.10;;;4.50;99.90;;;;;;5054919;28;20224;-88
2021/12/19 03:30:36;;;;;;;14.73;11.13;;;4.50;99.90;;;;;;5055933;28;20651;-88
2021/12/19 03:33:02;;;;;;;13.27;11.73;;;4.50;99.90;;;;;;5051425;28;20185;-88
2021/12/19 03:35:30;;;;;;;16.17;11.83;;;4.40;99.90;;;;;;5053123;28;20190;-87
2021/12/19 03:37:58;;;;;;;16.00;11.30;;;4.30;99.90;;;;;;5052077;28;20203;-87
2021/12/19 03:40:35;;;;;;;14.70;11.50;;;4.30;99.90;;;;;;5054719;28;20192;-88
2021/12/19 03:43:04;;;;;;;13.57;10.93;;;4.20;99.90;;;;;;5056476;28;20282;-88
2021/12/19 03:45:29;;;;;;;13.60;11.13;;;4.30;99.90;;;;;;5053502;28;20271;-87
2021/12/19 03:47:56;;;;;;;14.17;10.70;;;4.40;99.90;;;;;;5055661;28;20853;-88
2021/12/19 03:50:23;;;;;;;14.33;11.33;;;4.40;99.90;;;;;;5049268;28;20188;-88
2021/12/19 03:52:50;;;;;;;13.57;11.43;;;4.40;99.90;;;;;;5046129;28;20189;-88
2021/12/19 03:55:18;;;;;;;13.60;10.67;;;4.40;99.90;;;;;;5048443;28;20254;-88
2021/12/19 03:57:44;;;;;;;14.03;10.80;;;4.30;99.90;;;;;;5030428;28;20237;-88
2021/12/19 04:00:13;;;;;;;15.40;11.87;;;4.40;99.90;;;;;;5048232;28;20200;-87
2021/12/19 04:02:39;;;;;;;12.70;10.73;;;4.50;99.90;;;;;;5054836;28;20197;-88
2021/12/19 04:05:05;;;;;;;12.93;9.97;;;4.60;99.90;;;;;;5071643;28;20179;-88
2021/12/19 04:07:31;;;;;;;13.23;10.37;;;4.60;99.90;;;;;;5064212;28;20311;-88
2021/12/19 04:09:56;;;;;;;11.57;9.47;;;4.50;99.90;;;;;;5055445;28;20687;-87
2021/12/19 04:12:25;;;;;;;13.03;10.40;;;4.60;99.90;;;;;;5060674;28;20172;-87
2021/12/19 04:14:51;;;;;;;13.47;9.97;;;4.50;99.90;;;;;;5067883;28;20172;-87
2021/12/19 04:17:17;;;;;;;11.40;9.83;;;4.30;99.90;;;;;;5042157;28;20211;-88
2021/12/19 04:19:43;;;;;;;11.43;9.67;;;4.30;99.90;;;;;;5057620;28;20184;-88
2021/12/19 04:22:09;;;;;;;14.33;10.50;;;4.30;99.90;;;;;;5041260;28;20191;-87
2021/12/19 04:24:34;;;;;;;13.67;10.47;;;4.30;99.90;;;;;;5050576;28;20833;-88
2021/12/19 04:27:00;;;;;;;14.50;11.23;;;4.20;99.90;;;;;;5056083;28;20228;-88
2021/12/19 04:29:28;;;;;;;11.30;9.43;;;4.30;99.90;;;;;;5038037;28;20643;-87
2021/12/19 04:31:54;;;;;;;11.43;9.43;;;4.40;99.90;;;;;;5047873;28;20198;-87
2021/12/19 04:34:22;;;;;;;11.33;9.13;;;4.50;99.90;;;;;;5054069;28;20190;-87
2021/12/19 04:36:53;;;;;;;11.33;9.83;;;4.60;99.90;;;;;;5052168;28;20220;-88
2021/12/19 04:53:20;;;;;;;17.93;13.77;;;4.40;99.90;;;;;;5030994;28;20211;-88
2021/12/19 05:06:35;;;;;;;18.93;14.10;;;3.70;99.90;;;;;;5025058;28;20291;-87
2021/12/19 05:14:36;;;;;;;21.20;15.07;;;3.60;99.90;;;;;;5055572;28;20214;-88
2021/12/19 05:17:06;;;;;;;22.20;14.77;;;3.60;99.90;;;;;;5052851;28;20725;-88
2021/12/19 05:19:46;;;;;;;22.60;15.70;;;3.40;99.90;;;;;;5051193;28;20189;-88
2021/12/19 05:22:12;;;;;;;19.73;14.43;;;3.50;99.90;;;;;;5055350;28;20225;-88
2021/12/19 05:27:04;;;;;;;19.20;13.37;;;3.60;99.90;;;;;;5038233;28;20247;-88
2021/12/19 05:29:35;;;;;;;18.87;14.03;;;3.50;99.90;;;;;;5056105;28;20185;-88
2021/12/19 05:32:01;;;;;;;19.63;13.20;;;3.40;99.90;;;;;;5052716;28;20188;-88
2021/12/19 05:34:28;;;;;;;17.57;13.30;;;3.50;99.90;;;;;;5054617;28;20581;-88
2021/12/19 05:47:37;;;;;;;16.10;11.53;;;3.10;99.90;;;;;;5058702;28;20239;-87
2021/12/19 05:50:06;;;;;;;18.03;12.47;;;3.10;99.90;;;;;;5025191;28;20196;-88
2021/12/19 05:52:32;;;;;;;14.97;11.40;;;3.10;99.90;;;;;;5035611;28;20230;-88
2021/12/19 05:54:58;;;;;;;14.97;11.57;;;3.00;99.90;;;;;;5053511;28;20192;-88
2021/12/19 05:57:24;;;;;;;16.07;11.23;;;3.00;99.90;;;;;;5053083;28;20286;-87
2021/12/19 05:59:50;;;;;;;15.83;11.07;;;2.90;99.90;;;;;;5046606;28;20188;-88
2021/12/19 06:02:17;;;;;;;14.43;11.00;;;2.80;99.90;;;;;;5047079;28;20706;-88
2021/12/19 06:04:43;;;;;;;12.90;9.73;;;2.90;99.90;;;;;;5051661;28;20188;-88
2021/12/19 06:07:09;;;;;;;14.80;10.20;;;3.00;99.90;;;;;;5035069;28;20644;-88
2021/12/19 06:09:35;;;;;;;12.20;9.43;;;3.10;99.90;;;;;;5040278;28;20184;-88
2021/12/19 06:12:01;;;;;;;12.30;9.83;;;3.10;99.90;;;;;;5059110;28;20633;-88
2021/12/19 06:14:33;;;;;;;13.17;9.70;;;3.20;99.90;;;;;;5053012;28;20184;-88
2021/12/19 06:17:03;;;;;;;13.20;9.20;;;3.10;99.90;;;;;;5053289;28;20301;-88
2021/12/19 06:19:29;;;;;;;12.27;9.80;;;2.90;99.90;;;;;;5036152;28;20193;-88
2021/12/19 06:21:55;;;;;;;12.10;10.27;;;2.90;99.90;;;;;;5056733;28;20195;-88
2021/12/19 06:24:21;;;;;;;15.60;10.60;;;3.10;99.90;;;;;;5048506;28;20687;-88
2021/12/19 06:26:47;;;;;;;14.23;9.17;;;3.10;99.90;;;;;;5048480;28;20694;-88
2021/12/19 06:29:13;;;;;;;12.33;9.80;;;2.90;99.90;;;;;;5049870;28;20216;-88
2021/12/19 06:31:39;;;;;;;10.93;9.30;;;3.00;99.90;;;;;;5056206;28;20220;-88
2021/12/19 06:34:04;;;;;;;13.33;10.10;;;3.00;99.90;;;;;;5043031;28;20184;-88
2021/12/19 06:36:30;;;;;;;11.30;9.13;;;3.00;99.90;;;;;;5056309;28;20220;-88
2021/12/19 06:38:56;;;;;;;13.27;9.47;;;3.00;99.90;;;;;;5053299;28;20199;-88
2021/12/19 06:41:22;;;;;;;11.23;9.13;;;3.00;99.90;;;;;;5016500;28;20196;-87
2021/12/19 06:43:48;;;;;;;11.03;8.80;;;3.00;99.90;;;;;;5042156;28;20279;-89
2021/12/19 06:46:14;;;;;;;14.57;9.43;;;3.10;99.90;;;;;;5056805;28;20923;-88
2021/12/19 06:48:40;;;;;;;11.57;9.60;;;3.00;99.90;;;;;;5046454;28;20234;-87
2021/12/19 06:51:06;;;;;;;11.77;9.17;;;3.10;99.90;;;;;;5063044;28;20185;-88
2021/12/19 06:53:32;;;;;;;11.60;9.43;;;3.10;99.90;;;;;;5051008;28;20579;-87
2021/12/19 06:55:58;;;;;;;10.93;8.27;;;3.10;99.90;;;;;;5051067;28;20291;-88
2021/12/19 06:58:24;;;;;;;11.83;9.33;;;3.10;99.90;;;;;;5058164;28;20463;-88
2021/12/19 07:00:51;;;;;;;11.63;8.87;;;2.90;99.90;;;;;;5073358;28;20208;-88
2021/12/19 07:03:21;;;;;;;13.00;9.47;;;2.90;99.90;;;;;;5056210;28;20208;-88
2021/12/19 07:05:47;;;;;;;12.87;8.77;;;3.00;99.90;;;;;;5035559;28;20227;-88
2021/12/19 07:08:12;;;;;;;10.83;8.50;;;3.10;99.90;;;;;;5052752;28;20220;-87
2021/12/19 07:10:38;;;;;;;12.00;9.37;;;3.10;99.90;;;;;;5028507;28;20267;-88
2021/12/19 07:13:04;;;;;;;10.00;8.77;;;3.20;99.90;;;;;;5047632;28;20204;-88
2021/12/19 07:15:30;;;;;;;10.07;8.80;;;3.20;99.90;;;;;;5035812;28;20192;-88
2021/12/19 07:18:01;;;;;;;11.10;8.77;;;3.20;99.90;;;;;;5049465;28;20339;-88
2021/12/19 07:20:28;;;;;;;13.40;9.70;;;3.10;99.90;;;;;;5060624;28;20211;-87
2021/12/19 07:22:53;;;;;;;12.60;8.63;;;3.00;99.90;;;;;;5059266;28;20252;-88
2021/12/19 07:25:19;;;;;;;12.77;8.97;;;3.10;99.90;;;;;;5072250;28;20203;-88
2021/12/19 07:27:45;;;;;;;11.13;8.80;;;3.20;99.90;;;;;;5076013;28;20306;-88
2021/12/19 07:30:11;;;;;;;9.87;8.20;;;3.20;99.90;;;;;;5048996;28;20200;-88
2021/12/19 07:32:38;;;;;;;11.97;9.27;;;3.20;99.90;;;;;;5053228;28;20215;-88
2021/12/19 07:35:07;;;;;;;12.47;9.60;;;3.10;99.90;;;;;;5046538;28;20200;-88
2021/12/19 07:37:36;;;;;;;11.10;9.03;;;3.00;99.90;;;;;;5047370;28;20207;-88
2021/12/19 07:40:17;;;;;;;13.77;9.53;;;3.00;99.90;;;;;;5057302;28;20747;-88
2021/12/19 07:42:44;;;;;;;10.63;9.47;;;3.00;99.90;;;;;;5064416;28;20190;-88
2021/12/19 07:45:11;;;;;;;11.80;9.13;;;3.00;99.90;;;;;;5054364;28;20200;-88
2021/12/19 07:47:38;;;;;;;11.73;9.63;;;3.00;99.90;;;;;;5046510;28;20226;-87
2021/12/19 07:50:08;;;;;;;13.23;9.80;;;2.90;99.90;;;;;;5044969;28;20216;-88
2021/12/19 07:52:34;;;;;;;11.90;9.17;;;3.10;99.90;;;;;;5051150;28;20224;-87
2021/12/19 07:55:01;;;;;;;12.13;8.97;;;3.10;99.90;;;;;;5043431;28;20227;-88
2021/12/19 07:57:26;;;;;;;10.73;8.43;;;3.00;99.90;;;;;;5041498;28;20291;-87
2021/12/19 07:59:52;;;;;;;11.93;8.60;;;3.10;99.90;;;;;;5029801;28;20289;-88
2021/12/19 08:02:18;;;;;;;10.70;8.77;;;3.00;99.90;;;;;;4996681;28;20207;-87
2021/12/19 08:04:43;;;;;;;11.73;8.43;;;3.10;99.90;;;;;;5038088;28;20191;-87
2021/12/19 08:07:12;;;;;;;9.67;8.43;;;3.10;99.90;;;;;;5045102;28;20236;-87
2021/12/19 08:09:56;;;;;;;9.57;8.57;;;3.20;99.90;;;;;;5046370;28;20184;-87
2021/12/19 08:12:21;;;;;;;11.77;8.27;;;3.20;99.90;;;;;;5049572;28;20200;-86
2021/12/19 08:14:47;;;;;;;11.20;8.30;;;3.30;99.90;;;;;;5038141;28;20198;-86
2021/12/19 08:17:13;;;;;;;12.00;8.77;;;3.40;99.90;;;;;;5054119;28;20207;-86
2021/12/19 08:19:39;;;;;;;9.93;8.33;;;3.30;99.90;;;;;;5055506;28;20196;-89
2021/12/19 08:22:04;;;;;;;11.60;9.00;;;3.10;99.90;;;;;;5058270;28;20204;-88
2021/12/19 08:24:30;;;;;;;13.17;8.77;;;3.00;99.90;;;;;;5060361;28;20209;-87
2021/12/19 08:26:56;;;;;;;13.83;10.10;;;2.90;99.90;;;;;;5054488;28;20310;-87
2021/12/19 08:29:22;;;;;;;12.73;9.37;;;2.80;99.90;;;;;;5053793;28;20271;-87
2021/12/19 08:31:47;;;;;;;12.47;9.43;;;2.80;99.90;;;;;;5041336;28;20205;-87
2021/12/19 08:34:13;;;;;;;12.27;8.93;;;2.80;99.90;;;;;;5054171;28;20191;-87
2021/12/19 08:36:39;;;;;;;13.93;8.30;;;2.80;99.90;;;;;;5024015;28;20239;-87
2021/12/19 08:39:06;;;;;;;9.10;7.93;;;2.80;99.90;;;;;;5038951;28;20200;-87
2021/12/19 08:41:31;;;;;;;10.27;8.37;;;2.90;99.90;;;;;;5053055;28;20204;-87
2021/12/19 08:43:57;;;;;;;10.50;7.87;;;3.00;99.90;;;;;;5057718;28;20192;-87
2021/12/19 08:46:23;;;;;;;10.10;7.63;;;3.00;99.90;;;;;;5023574;28;20208;-87
2021/12/19 08:48:49;;;;;;;8.90;7.60;;;2.90;99.90;;;;;;5052795;28;20192;-87
2021/12/19 08:51:15;;;;;;;10.53;8.63;;;2.90;99.90;;;;;;5032234;28;20200;-87
2021/12/19 08:53:40;;;;;;;10.70;8.60;;;2.80;99.90;;;;;;5053009;28;20563;-87
2021/12/19 08:56:06;;;;;;;10.20;8.17;;;2.80;99.90;;;;;;5057481;28;20289;-86
2021/12/19 08:58:32;;;;;;;11.53;8.53;;;2.70;99.90;;;;;;5040328;28;20196;-86
2021/12/19 09:01:01;;;;;;;11.93;8.83;;;2.70;99.90;;;;;;5037630;28;20272;-87
2021/12/19 09:03:29;;;;;;;13.33;9.20;;;2.70;99.90;;;;;;5059030;28;20243;-86
2021/12/19 09:05:56;;;;;;;14.13;9.50;;;2.60;99.90;;;;;;5048717;28;20210;-87
2021/12/19 09:08:21;;;;;;;11.80;9.23;;;2.60;99.90;;;;;;5044734;28;20196;-87
2021/12/19 09:10:47;;;;;;;11.77;8.70;;;2.70;99.90;;;;;;5050021;28;20189;-87
2021/12/19 09:13:13;;;;;;;12.70;8.27;;;2.70;99.90;;;;;;5028358;28;20271;-87
2021/12/19 09:15:38;;;;;;;13.10;9.87;;;2.70;99.90;;;;;;5041626;28;20233;-87
2021/12/19 09:18:04;;;;;;;11.90;9.90;;;2.60;99.90;;;;;;5048038;28;20222;-88
2021/12/19 09:20:30;;;;;;;14.97;9.20;;;2.70;99.90;;;;;;5046870;28;20189;-87
2021/12/19 09:22:56;;;;;;;12.33;9.37;;;2.70;99.90;;;;;;5046825;28;20203;-87
2021/12/19 09:25:21;;;;;;;10.53;8.50;;;2.80;99.90;;;;;;5045397;28;20219;-87
2021/12/19 09:27:48;;;;;;;11.40;9.10;;;2.90;99.90;;;;;;5048432;28;20220;-87
2021/12/19 09:30:14;;;;;;;12.13;9.40;;;3.00;99.90;;;;;;5025709;28;20271;-87
2021/12/19 09:32:40;;;;;;;13.70;9.20;;;2.90;99.90;;;;;;5044458;28;20185;-86
2021/12/19 09:35:07;;;;;;;12.67;9.73;;;2.90;99.90;;;;;;5034916;28;20203;-86
2021/12/19 09:37:35;;;;;;;11.80;9.53;;;2.70;99.90;;;;;;5053735;28;20193;-85
2021/12/19 09:40:05;;;;;;;12.07;9.50;;;2.80;99.90;;;;;;5060706;28;20194;-85
2021/12/19 09:42:34;;;;;;;11.13;9.80;;;2.80;99.90;;;;;;5058301;28;20181;-86
2021/12/19 09:45:02;;;;;;;11.97;10.03;;;2.80;99.90;;;;;;5074283;28;20184;-85
2021/12/19 09:47:28;;;;;;;13.27;10.03;;;2.90;99.90;;;;;;5071613;28;20224;-85
2021/12/19 09:49:54;;;;;;;12.83;10.40;;;2.90;99.90;;;;;;5063161;28;20207;-82
2021/12/19 09:52:20;;;;;;;12.30;10.27;;;2.90;99.90;;;;;;5058629;28;20287;-85
2021/12/19 09:54:46;;;;;;;13.70;9.87;;;2.90;99.90;;;;;;5038371;28;20240;-86
2021/12/19 09:57:12;;;;;;;13.13;9.97;;;2.90;99.90;;;;;;5051079;28;20220;-85
2021/12/19 09:59:38;;;;;;;12.53;10.33;;;2.90;99.90;;;;;;5051487;28;20188;-86
2021/12/19 10:02:04;;;;;;;11.90;9.57;;;3.00;99.90;;;;;;5049560;28;20215;-86
2021/12/19 10:04:41;;;;;;;12.40;10.00;;;3.00;99.90;;;;;;5044487;28;20207;-87
2021/12/19 10:07:14;;;;;;;14.50;10.73;;;3.00;99.90;;;;;;5053923;28;20236;-88
2021/12/19 10:10:02;;;;;;;11.77;9.83;;;3.10;99.90;;;;;;5052504;28;20192;-86
2021/12/19 10:15:13;;;;;;;12.83;10.00;;;3.00;99.90;;;;;;5048846;28;20192;-86
2021/12/19 10:17:39;;;;;;;13.33;10.37;;;3.00;99.90;;;;;;5032220;28;20298;-86
2021/12/19 10:20:08;;;;;;;11.20;9.17;;;3.20;99.90;;;;;;5033369;28;20204;-85
2021/12/19 10:22:43;;;;;;;12.77;10.40;;;3.20;99.90;;;;;;5051126;28;20196;-86
2021/12/19 10:25:30;;;;;;;13.67;9.90;;;3.20;99.90;;;;;;5047610;28;20289;-86
2021/12/19 10:27:58;;;;;;;12.73;10.00;;;3.20;99.90;;;;;;5051114;28;20624;-86
2021/12/19 10:30:31;;;;;;;12.97;11.13;;;3.20;99.90;;;;;;5051875;28;20301;-86
2021/12/19 10:33:00;;;;;;;10.37;9.20;;;3.00;99.90;;;;;;5051338;28;20193;-86
2021/12/19 10:35:39;;;;;;;10.97;9.40;;;3.10;99.90;;;;;;5051015;28;20191;-86
2021/12/19 10:38:16;;;;;;;10.73;9.07;;;3.20;99.90;;;;;;5054402;28;20204;-86
2021/12/19 10:40:57;;;;;;;11.03;9.67;;;3.50;99.90;;;;;;5048258;28;20199;-86
2021/12/19 10:43:27;;;;;;;11.10;9.47;;;3.70;99.90;;;;;;5047806;28;20564;-85
2021/12/19 10:46:02;;;;;;;11.37;8.90;;;3.70;99.90;;;;;;5049035;28;20209;-86
2021/12/19 10:48:32;;;;;;;10.70;9.57;;;3.60;99.90;;;;;;5050063;28;20200;-86
2021/12/19 10:51:00;;;;;;;10.43;8.73;;;3.50;99.90;;;;;;5048040;28;20180;-87
2021/12/19 10:53:31;;;;;;;11.13;8.63;;;3.50;99.90;;;;;;5032658;28;20189;-86
2021/12/19 10:55:58;;;;;;;10.30;8.77;;;3.50;99.90;;;;;;5032152;28;20770;-86
2021/12/19 10:58:29;;;;;;;10.57;9.33;;;3.60;99.90;;;;;;5029968;28;20185;-86
2021/12/19 11:01:04;;;;;;;11.33;9.73;;;3.40;99.90;;;;;;5049428;28;20215;-86
2021/12/19 11:03:41;;;;;;;11.40;9.43;;;3.30;99.90;;;;;;5049282;28;20188;-86
2021/12/19 11:06:23;;;;;;;13.37;10.43;;;3.30;99.90;;;;;;5030599;28;20220;-86
2021/12/19 11:08:51;;;;;;;10.63;9.40;;;3.20;99.90;;;;;;5036734;28;20199;-87
2021/12/19 11:11:35;;;;;;;11.37;9.77;;;3.30;99.90;;;;;;5047858;28;20217;-86
2021/12/19 11:14:03;;;;;;;11.10;9.63;;;3.20;99.90;;;;;;5052299;28;20187;-86
2021/12/19 11:16:30;;;;;;;10.60;9.30;;;3.30;99.90;;;;;;5044385;28;20607;-87
2021/12/19 11:18:55;;;;;;;11.43;10.23;;;3.20;99.90;;;;;;5052343;28;20192;-87
2021/12/19 11:21:22;;;;;;;11.57;10.10;;;3.10;99.90;;;;;;5047867;28;20321;-87
2021/12/19 11:23:48;;;;;;;11.60;9.53;;;3.00;99.90;;;;;;5045164;28;20840;-86
2021/12/19 11:26:18;;;;;;;11.17;9.50;;;3.00;99.90;;;;;;5047657;28;20671;-86
2021/12/19 11:28:43;;;;;;;13.33;10.37;;;3.00;99.90;;;;;;5026507;28;20212;-86
2021/12/19 11:31:11;;;;;;;13.47;10.33;;;2.90;99.90;;;;;;5047440;28;20551;-86
2021/12/19 11:34:10;;;;;;;11.73;9.13;;;3.00;99.90;;;;;;5044980;28;20420;-85
2021/12/19 11:36:41;;;;;;;10.67;8.90;;;3.10;99.90;;;;;;5030346;28;20228;-86
2021/12/19 11:39:08;;;;;;;10.03;9.03;;;3.10;99.90;;;;;;5050992;28;20239;-87
2021/12/19 11:41:35;;;;;;;12.83;9.47;;;3.10;99.90;;;;;;5048406;28;20203;-87
2021/12/19 11:44:06;;;;;;;11.97;9.57;;;3.20;99.90;;;;;;5044198;28;20184;-86
2021/12/19 11:46:53;;;;;;;10.83;9.20;;;3.10;99.90;;;;;;5051207;28;20221;-86
2021/12/19 11:49:25;;;;;;;11.00;9.30;;;3.10;99.90;;;;;;5052486;28;20196;-86
2021/12/19 11:52:24;;;;;;;12.63;9.53;;;3.00;99.90;;;;;;5050971;28;20663;-86
2021/12/19 11:55:14;;;;;;;10.07;8.97;;;3.00;99.90;;;;;;5036104;28;20188;-86
2021/12/19 11:57:41;;;;;;;10.43;9.13;;;2.90;99.90;;;;;;5047194;28;20199;-85
2021/12/19 12:00:27;;;;;;;12.10;9.97;;;2.90;99.90;;;;;;5053142;28;20670;-85
2021/12/19 12:03:11;;;;;;;11.13;8.57;;;3.00;99.90;;;;;;5068118;28;20268;-84
2021/12/19 12:05:52;;;;;;;10.97;8.63;;;3.20;99.90;;;;;;5061202;28;20243;-87
2021/12/19 12:08:38;;;;;;;10.20;9.10;;;3.10;99.90;;;;;;5048069;28;20709;-86
2021/12/19 12:11:04;;;;;;;11.00;8.80;;;3.30;99.90;;;;;;5047778;28;20196;-86
2021/12/19 12:13:32;;;;;;;9.63;7.73;;;3.30;99.90;;;;;;5032370;28;20195;-86
2021/12/19 12:16:31;;;;;;;10.13;8.30;;;3.20;99.90;;;;;;5024227;28;20776;-86
2021/12/19 12:18:59;;;;;;;12.83;8.63;;;3.20;99.90;;;;;;5045716;28;20277;-86
2021/12/19 12:23:56;;;;;;;10.23;8.73;;;3.20;99.90;;;;;;5051183;28;20211;-86
2021/12/19 12:26:22;;;;;;;11.63;9.20;;;3.20;99.90;;;;;;5028884;28;20281;-85
2021/12/19 12:28:49;;;;;;;10.47;8.77;;;3.10;99.90;;;;;;5070106;28;20195;-84
2021/12/19 12:31:15;;;;;;;11.07;9.20;;;3.20;99.90;;;;;;5029122;28;20818;-87
2021/12/19 12:33:41;;;;;;;12.50;8.90;;;3.20;99.90;;;;;;5064082;28;20230;-86
2021/12/19 12:36:07;;;;;;;10.30;8.73;;;3.20;99.90;;;;;;5072022;28;20206;-84
2021/12/19 12:38:33;;;;;;;10.57;8.87;;;3.40;99.90;;;;;;5081894;28;20183;-84
2021/12/19 12:41:09;;;;;;;9.20;8.30;;;3.40;99.90;;;;;;5044917;28;20258;-85
2021/12/19 12:43:39;;;;;;;9.27;8.13;;;3.30;99.90;;;;;;5063597;28;20319;-86
2021/12/19 12:46:07;;;;;;;9.40;8.13;;;3.30;99.90;;;;;;5046425;28;20247;-86
2021/12/19 12:48:51;;;;;;;9.63;8.10;;;3.30;99.90;;;;;;5064316;28;20194;-85
2021/12/19 12:51:34;;;;;;;12.83;9.20;;;3.30;99.90;;;;;;5065950;28;20185;-86
2021/12/19 12:54:07;;;;;;;9.13;8.23;;;3.40;99.90;;;;;;5048049;28;20664;-86
2021/12/19 12:56:42;;;;;;;10.50;9.30;;;3.50;99.90;;;;;;5061689;28;20265;-85
2021/12/19 12:59:08;;;;;;;11.97;9.57;;;3.40;99.90;;;;;;5064978;28;20542;-86
2021/12/19 13:01:44;;;;;;;13.13;9.97;;;3.40;99.90;;;;;;5060424;28;20216;-86
2021/12/19 13:04:17;;;;;;;11.93;10.60;;;3.30;99.90;;;;;;5060614;28;20191;-85
2021/12/19 13:06:46;;;;;;;12.37;9.57;;;3.30;99.90;;;;;;5032451;28;20211;-85
2021/12/19 13:09:45;;;;;;;10.40;9.17;;;3.20;99.90;;;;;;5044334;28;20180;-85
2021/12/19 13:12:22;;;;;;;11.97;10.40;;;3.40;99.90;;;;;;5016624;28;20199;-84
2021/12/19 13:14:52;;;;;;;11.87;9.70;;;3.30;99.90;;;;;;5046431;28;20192;-87
2021/12/19 13:17:30;;;;;;;11.40;10.20;;;3.10;99.90;;;;;;5061502;28;20219;-86
2021/12/19 13:20:02;;;;;;;11.83;9.73;;;3.20;99.90;;;;;;5047594;28;20198;-86
2021/12/19 13:22:40;;;;;;;11.60;9.67;;;3.20;99.90;;;;;;5065526;28;20821;-86
2021/12/19 13:25:29;;;;;;;17.13;10.97;;;3.10;99.90;;;;;;5061432;28;20216;-85
2021/12/19 13:27:57;;;;;;;12.97;10.50;;;3.20;99.90;;;;;;5064809;28;20212;-88
2021/12/19 13:30:24;;;;;;;11.10;9.17;;;3.30;99.90;;;;;;5065671;28;20192;-85
2021/12/19 13:33:14;;;;;;;12.17;9.57;;;3.30;99.90;;;;;;5067405;28;20180;-87
2021/12/19 13:35:41;;;;;;;15.23;8.50;;;3.20;99.90;;;;;;5066841;28;20238;-86
2021/12/19 13:38:35;;;;;;;13.80;8.87;;;3.10;99.90;;;;;;5066134;28;20627;-85
2021/12/19 13:41:04;;;;;;;12.77;8.50;;;3.10;99.90;;;;;;5060342;28;20199;-85
2021/12/19 13:43:32;;;;;;;11.10;7.00;;;3.20;99.90;;;;;;5049198;28;20195;-90
2021/12/19 13:46:00;;;;;;;11.53;6.67;;;3.30;99.90;;;;;;5065750;28;20617;-88
2021/12/19 13:48:38;;;;;;;6.50;5.23;;;3.40;99.90;;;;;;5048626;28;20294;-86
2021/12/19 13:51:07;;;;;;;6.03;5.27;;;3.50;99.90;;;;;;5063359;28;20195;-87
2021/12/19 13:53:36;;;;;;;6.93;5.83;;;3.50;99.90;;;;;;5045337;28;20207;-85
2021/12/19 13:56:25;;;;;;;8.17;5.63;;;3.50;99.90;;;;;;5047056;28;20203;-86
2021/12/19 13:58:57;;;;;;;7.53;6.70;;;3.50;99.90;;;;;;5054020;28;20290;-89
2021/12/19 14:01:30;;;;;;;16.50;9.23;;;3.50;99.90;;;;;;5043216;28;20183;-87
2021/12/19 14:04:24;;;;;;;12.67;9.33;;;3.50;99.90;;;;;;5043885;28;20192;-88